sensor_id;sensor_type;location;lat;lon;timestamp;P1;durP1;ratioP1;P2;durP2;ratioP2
36691;SDS011;22678;52.052;4.242;2022-09-09T00:00:23;6.60;;;2.47;;
36691;SDS011;22678;52.052;4.242;2022-09-09T00:03:05;6.13;;;3.15;;
36691;SDS011;22678;52.052;4.242;2022-09-09T00:05:51;9.52;;;3.08;;
36691;SDS011;22678;52.052;4.242;2022-09-09T00:08:25;7.18;;;1.90;;
36691;SDS011;22678;52.052;4.242;2022-09-09T00:11:09;10.30;;;3.80;;
36691;SDS011;22678;52.052;4.242;2022-09-09T00:13:39;7.88;;;4.30;;
36691;SDS011;22678;52.052;4.242;2022-09-09T00:16:15;5.10;;;2.95;;
36691;SDS011;22678;52.052;4.242;2022-09-09T00:21:38;8.23;;;3.63;;
36691;SDS011;22678;52.052;4.242;2022-09-09T00:24:17;11.40;;;5.25;;
36691;SDS011;22678;52.052;4.242;2022-09-09T00:26:48;14.63;;;5.20;;
36691;SDS011;22678;52.052;4.242;2022-09-09T00:29:24;9.95;;;5.72;;
36691;SDS011;22678;52.052;4.242;2022-09-09T00:35:02;10.13;;;6.78;;
36691;SDS011;22678;52.052;4.242;2022-09-09T00:37:40;14.43;;;8.77;;
36691;SDS011;22678;52.052;4.242;2022-09-09T00:40:18;13.95;;;8.50;;
36691;SDS011;22678;52.052;4.242;2022-09-09T00:42:51;16.10;;;8.52;;
36691;SDS011;22678;52.052;4.242;2022-09-09T00:47:56;24.88;;;11.10;;
36691;SDS011;22678;52.052;4.242;2022-09-09T00:53:17;16.40;;;9.73;;
36691;SDS011;22678;52.052;4.242;2022-09-09T00:58:36;15.82;;;8.85;;
36691;SDS011;22678;52.052;4.242;2022-09-09T01:01:07;16.38;;;9.43;;
36691;SDS011;22678;52.052;4.242;2022-09-09T01:14:43;14.90;;;7.18;;
36691;SDS011;22678;52.052;4.242;2022-09-09T01:17:26;12.07;;;7.47;;
36691;SDS011;22678;52.052;4.242;2022-09-09T01:20:09;14.93;;;7.07;;
36691;SDS011;22678;52.052;4.242;2022-09-09T01:28:31;10.38;;;4.22;;
36691;SDS011;22678;52.052;4.242;2022-09-09T01:31:00;11.65;;;5.70;;
36691;SDS011;22678;52.052;4.242;2022-09-09T01:33:27;7.28;;;4.90;;
36691;SDS011;22678;52.052;4.242;2022-09-09T01:38:36;8.77;;;6.20;;
36691;SDS011;22678;52.052;4.242;2022-09-09T01:41:02;11.18;;;4.30;;
36691;SDS011;22678;52.052;4.242;2022-09-09T01:43:27;10.70;;;4.38;;
36691;SDS011;22678;52.052;4.242;2022-09-09T01:45:54;10.82;;;4.00;;
36691;SDS011;22678;52.052;4.242;2022-09-09T01:48:23;11.20;;;3.80;;
36691;SDS011;22678;52.052;4.242;2022-09-09T01:50:49;7.75;;;2.60;;
36691;SDS011;22678;52.052;4.242;2022-09-09T01:53:15;8.85;;;3.97;;
36691;SDS011;22678;52.052;4.242;2022-09-09T01:55:45;8.40;;;2.22;;
36691;SDS011;22678;52.052;4.242;2022-09-09T02:04:00;8.27;;;2.30;;
36691;SDS011;22678;52.052;4.242;2022-09-09T02:06:35;9.55;;;2.83;;
36691;SDS011;22678;52.052;4.242;2022-09-09T02:09:04;5.10;;;2.15;;
36691;SDS011;22678;52.052;4.242;2022-09-09T02:11:30;5.22;;;1.73;;
36691;SDS011;22678;52.052;4.242;2022-09-09T02:13:59;10.30;;;2.70;;
36691;SDS011;22678;52.052;4.242;2022-09-09T02:16:29;6.03;;;2.03;;
36691;SDS011;22678;52.052;4.242;2022-09-09T02:19:16;4.82;;;1.52;;
36691;SDS011;22678;52.052;4.242;2022-09-09T02:21:49;6.60;;;1.33;;
36691;SDS011;22678;52.052;4.242;2022-09-09T02:24:15;5.13;;;1.23;;
36691;SDS011;22678;52.052;4.242;2022-09-09T02:26:41;6.78;;;2.30;;
36691;SDS011;22678;52.052;4.242;2022-09-09T02:29:20;5.32;;;1.80;;
36691;SDS011;22678;52.052;4.242;2022-09-09T02:31:52;8.30;;;2.53;;
36691;SDS011;22678;52.052;4.242;2022-09-09T02:34:22;9.60;;;2.08;;
36691;SDS011;22678;52.052;4.242;2022-09-09T02:36:49;7.10;;;1.60;;
36691;SDS011;22678;52.052;4.242;2022-09-09T02:39:17;9.13;;;1.73;;
36691;SDS011;22678;52.052;4.242;2022-09-09T02:41:43;6.50;;;2.65;;
36691;SDS011;22678;52.052;4.242;2022-09-09T02:44:10;2.75;;;1.10;;
36691;SDS011;22678;52.052;4.242;2022-09-09T02:46:41;6.20;;;1.67;;
36691;SDS011;22678;52.052;4.242;2022-09-09T02:52:05;4.53;;;1.40;;
36691;SDS011;22678;52.052;4.242;2022-09-09T02:54:34;6.45;;;1.05;;
36691;SDS011;22678;52.052;4.242;2022-09-09T02:57:14;5.32;;;1.67;;
36691;SDS011;22678;52.052;4.242;2022-09-09T02:59:44;5.53;;;1.02;;
36691;SDS011;22678;52.052;4.242;2022-09-09T03:02:10;5.63;;;1.15;;
36691;SDS011;22678;52.052;4.242;2022-09-09T03:04:36;2.78;;;0.70;;
36691;SDS011;22678;52.052;4.242;2022-09-09T03:07:06;5.22;;;0.70;;
36691;SDS011;22678;52.052;4.242;2022-09-09T03:09:32;8.07;;;1.52;;
36691;SDS011;22678;52.052;4.242;2022-09-09T03:12:00;3.42;;;1.27;;
36691;SDS011;22678;52.052;4.242;2022-09-09T03:14:25;3.78;;;0.60;;
36691;SDS011;22678;52.052;4.242;2022-09-09T03:16:51;3.80;;;0.85;;
36691;SDS011;22678;52.052;4.242;2022-09-09T03:19:17;4.28;;;0.55;;
36691;SDS011;22678;52.052;4.242;2022-09-09T03:21:43;8.52;;;0.98;;
36691;SDS011;22678;52.052;4.242;2022-09-09T03:24:10;4.40;;;0.70;;
36691;SDS011;22678;52.052;4.242;2022-09-09T03:26:35;2.45;;;0.40;;
36691;SDS011;22678;52.052;4.242;2022-09-09T03:29:02;5.43;;;1.05;;
36691;SDS011;22678;52.052;4.242;2022-09-09T03:31:28;9.07;;;2.35;;
36691;SDS011;22678;52.052;4.242;2022-09-09T03:33:55;7.28;;;1.15;;
36691;SDS011;22678;52.052;4.242;2022-09-09T03:36:23;4.13;;;0.70;;
36691;SDS011;22678;52.052;4.242;2022-09-09T03:38:48;9.40;;;1.27;;
36691;SDS011;22678;52.052;4.242;2022-09-09T03:41:14;6.30;;;1.15;;
36691;SDS011;22678;52.052;4.242;2022-09-09T03:43:39;4.68;;;0.82;;
36691;SDS011;22678;52.052;4.242;2022-09-09T03:46:05;9.23;;;0.85;;
36691;SDS011;22678;52.052;4.242;2022-09-09T03:48:30;5.95;;;1.30;;
36691;SDS011;22678;52.052;4.242;2022-09-09T03:50:55;4.70;;;0.50;;
36691;SDS011;22678;52.052;4.242;2022-09-09T03:53:23;6.07;;;1.10;;
36691;SDS011;22678;52.052;4.242;2022-09-09T03:55:50;3.60;;;0.73;;
36691;SDS011;22678;52.052;4.242;2022-09-09T03:58:19;6.30;;;0.77;;
36691;SDS011;22678;52.052;4.242;2022-09-09T04:00:53;6.55;;;2.25;;
36691;SDS011;22678;52.052;4.242;2022-09-09T04:03:23;4.05;;;0.50;;
36691;SDS011;22678;52.052;4.242;2022-09-09T04:05:49;7.22;;;1.20;;
36691;SDS011;22678;52.052;4.242;2022-09-09T04:08:18;6.82;;;1.02;;
36691;SDS011;22678;52.052;4.242;2022-09-09T04:10:45;4.90;;;1.25;;
36691;SDS011;22678;52.052;4.242;2022-09-09T04:13:11;3.58;;;0.70;;
36691;SDS011;22678;52.052;4.242;2022-09-09T04:15:40;4.43;;;1.13;;
36691;SDS011;22678;52.052;4.242;2022-09-09T04:18:05;8.85;;;0.95;;
36691;SDS011;22678;52.052;4.242;2022-09-09T04:20:31;4.95;;;0.90;;
36691;SDS011;22678;52.052;4.242;2022-09-09T04:22:56;5.32;;;0.80;;
36691;SDS011;22678;52.052;4.242;2022-09-09T04:25:22;5.07;;;0.70;;
36691;SDS011;22678;52.052;4.242;2022-09-09T04:27:47;4.43;;;0.80;;
36691;SDS011;22678;52.052;4.242;2022-09-09T04:30:13;8.48;;;2.70;;
36691;SDS011;22678;52.052;4.242;2022-09-09T04:32:38;6.82;;;1.08;;
36691;SDS011;22678;52.052;4.242;2022-09-09T04:35:04;6.18;;;0.85;;
36691;SDS011;22678;52.052;4.242;2022-09-09T04:37:29;9.68;;;2.05;;
36691;SDS011;22678;52.052;4.242;2022-09-09T04:39:55;5.60;;;0.70;;
36691;SDS011;22678;52.052;4.242;2022-09-09T04:42:20;5.65;;;0.93;;
36691;SDS011;22678;52.052;4.242;2022-09-09T04:44:46;9.48;;;2.47;;
36691;SDS011;22678;52.052;4.242;2022-09-09T04:47:11;4.88;;;0.63;;
36691;SDS011;22678;52.052;4.242;2022-09-09T04:49:37;7.85;;;0.77;;
36691;SDS011;22678;52.052;4.242;2022-09-09T04:52:03;6.18;;;1.50;;
36691;SDS011;22678;52.052;4.242;2022-09-09T04:54:29;11.20;;;1.40;;
36691;SDS011;22678;52.052;4.242;2022-09-09T04:56:54;7.03;;;0.75;;
36691;SDS011;22678;52.052;4.242;2022-09-09T04:59:20;7.10;;;1.52;;
36691;SDS011;22678;52.052;4.242;2022-09-09T05:01:46;4.45;;;0.68;;
36691;SDS011;22678;52.052;4.242;2022-09-09T05:04:12;5.25;;;1.00;;
36691;SDS011;22678;52.052;4.242;2022-09-09T05:06:40;8.23;;;0.95;;
36691;SDS011;22678;52.052;4.242;2022-09-09T05:09:05;5.50;;;0.80;;
36691;SDS011;22678;52.052;4.242;2022-09-09T05:11:31;4.85;;;0.88;;
36691;SDS011;22678;52.052;4.242;2022-09-09T05:13:57;6.15;;;1.42;;
36691;SDS011;22678;52.052;4.242;2022-09-09T05:16:22;5.57;;;1.00;;
36691;SDS011;22678;52.052;4.242;2022-09-09T05:18:48;3.40;;;0.80;;
36691;SDS011;22678;52.052;4.242;2022-09-09T05:21:15;5.65;;;1.73;;
36691;SDS011;22678;52.052;4.242;2022-09-09T05:23:41;5.57;;;0.77;;
36691;SDS011;22678;52.052;4.242;2022-09-09T05:26:09;4.82;;;1.52;;
36691;SDS011;22678;52.052;4.242;2022-09-09T05:28:38;3.97;;;0.93;;
36691;SDS011;22678;52.052;4.242;2022-09-09T05:31:05;5.13;;;1.02;;
36691;SDS011;22678;52.052;4.242;2022-09-09T05:33:33;5.18;;;1.95;;
36691;SDS011;22678;52.052;4.242;2022-09-09T05:36:00;9.63;;;1.75;;
36691;SDS011;22678;52.052;4.242;2022-09-09T05:38:30;14.90;;;1.20;;
36691;SDS011;22678;52.052;4.242;2022-09-09T05:40:58;7.55;;;1.17;;
36691;SDS011;22678;52.052;4.242;2022-09-09T05:43:24;6.65;;;2.25;;
36691;SDS011;22678;52.052;4.242;2022-09-09T05:46:00;5.70;;;1.40;;
36691;SDS011;22678;52.052;4.242;2022-09-09T05:48:27;9.20;;;1.67;;
36691;SDS011;22678;52.052;4.242;2022-09-09T05:50:54;3.22;;;1.02;;
36691;SDS011;22678;52.052;4.242;2022-09-09T05:53:19;7.18;;;1.80;;
36691;SDS011;22678;52.052;4.242;2022-09-09T05:55:45;8.63;;;1.70;;
36691;SDS011;22678;52.052;4.242;2022-09-09T05:58:10;5.43;;;1.10;;
36691;SDS011;22678;52.052;4.242;2022-09-09T06:00:36;12.43;;;2.17;;
36691;SDS011;22678;52.052;4.242;2022-09-09T06:03:02;4.28;;;1.10;;
36691;SDS011;22678;52.052;4.242;2022-09-09T06:05:28;7.03;;;1.10;;
36691;SDS011;22678;52.052;4.242;2022-09-09T06:07:55;10.95;;;2.22;;
36691;SDS011;22678;52.052;4.242;2022-09-09T06:10:20;6.80;;;1.20;;
36691;SDS011;22678;52.052;4.242;2022-09-09T06:12:46;7.53;;;1.83;;
36691;SDS011;22678;52.052;4.242;2022-09-09T06:15:11;9.52;;;1.52;;
36691;SDS011;22678;52.052;4.242;2022-09-09T06:17:36;17.40;;;2.33;;
36691;SDS011;22678;52.052;4.242;2022-09-09T06:20:02;6.82;;;1.58;;
36691;SDS011;22678;52.052;4.242;2022-09-09T06:22:27;15.90;;;4.70;;
36691;SDS011;22678;52.052;4.242;2022-09-09T06:24:53;11.80;;;2.25;;
36691;SDS011;22678;52.052;4.242;2022-09-09T06:27:18;7.50;;;2.33;;
36691;SDS011;22678;52.052;4.242;2022-09-09T06:29:43;5.60;;;2.45;;
36691;SDS011;22678;52.052;4.242;2022-09-09T06:32:09;13.18;;;3.88;;
36691;SDS011;22678;52.052;4.242;2022-09-09T06:34:34;8.63;;;2.80;;
36691;SDS011;22678;52.052;4.242;2022-09-09T06:37:01;6.03;;;1.60;;
36691;SDS011;22678;52.052;4.242;2022-09-09T06:39:26;9.60;;;2.00;;
36691;SDS011;22678;52.052;4.242;2022-09-09T06:41:52;9.25;;;2.60;;
36691;SDS011;22678;52.052;4.242;2022-09-09T06:44:18;11.88;;;2.40;;
36691;SDS011;22678;52.052;4.242;2022-09-09T06:46:44;10.63;;;3.45;;
36691;SDS011;22678;52.052;4.242;2022-09-09T06:49:12;7.05;;;2.40;;
36691;SDS011;22678;52.052;4.242;2022-09-09T06:51:38;10.35;;;2.47;;
36691;SDS011;22678;52.052;4.242;2022-09-09T06:54:07;21.60;;;3.88;;
36691;SDS011;22678;52.052;4.242;2022-09-09T06:56:35;10.77;;;3.15;;
36691;SDS011;22678;52.052;4.242;2022-09-09T06:59:02;9.82;;;4.57;;
36691;SDS011;22678;52.052;4.242;2022-09-09T07:01:31;8.85;;;3.63;;
36691;SDS011;22678;52.052;4.242;2022-09-09T07:03:58;8.07;;;3.03;;
36691;SDS011;22678;52.052;4.242;2022-09-09T07:06:25;9.10;;;2.92;;
36691;SDS011;22678;52.052;4.242;2022-09-09T07:08:53;12.15;;;3.00;;
36691;SDS011;22678;52.052;4.242;2022-09-09T07:11:21;11.63;;;3.88;;
36691;SDS011;22678;52.052;4.242;2022-09-09T07:13:47;11.57;;;2.42;;
36691;SDS011;22678;52.052;4.242;2022-09-09T07:16:14;17.98;;;3.42;;
36691;SDS011;22678;52.052;4.242;2022-09-09T07:18:42;9.63;;;3.33;;
36691;SDS011;22678;52.052;4.242;2022-09-09T07:21:09;13.23;;;3.53;;
36691;SDS011;22678;52.052;4.242;2022-09-09T07:23:36;11.30;;;3.67;;
36691;SDS011;22678;52.052;4.242;2022-09-09T07:26:06;7.95;;;3.40;;
36691;SDS011;22678;52.052;4.242;2022-09-09T07:28:33;9.15;;;2.78;;
36691;SDS011;22678;52.052;4.242;2022-09-09T07:31:00;7.45;;;1.90;;
36691;SDS011;22678;52.052;4.242;2022-09-09T07:33:27;13.00;;;4.22;;
36691;SDS011;22678;52.052;4.242;2022-09-09T07:36:01;9.77;;;2.58;;
36691;SDS011;22678;52.052;4.242;2022-09-09T07:38:38;10.68;;;3.65;;
36691;SDS011;22678;52.052;4.242;2022-09-09T07:41:08;8.68;;;3.30;;
36691;SDS011;22678;52.052;4.242;2022-09-09T07:43:39;9.10;;;2.55;;
36691;SDS011;22678;52.052;4.242;2022-09-09T07:46:08;12.25;;;4.25;;
36691;SDS011;22678;52.052;4.242;2022-09-09T07:48:35;9.73;;;3.08;;
36691;SDS011;22678;52.052;4.242;2022-09-09T07:51:11;6.78;;;2.45;;
36691;SDS011;22678;52.052;4.242;2022-09-09T07:53:44;6.97;;;2.25;;
36691;SDS011;22678;52.052;4.242;2022-09-09T07:56:12;13.80;;;3.97;;
36691;SDS011;22678;52.052;4.242;2022-09-09T07:58:39;10.82;;;3.03;;
36691;SDS011;22678;52.052;4.242;2022-09-09T08:01:13;8.93;;;4.18;;
36691;SDS011;22678;52.052;4.242;2022-09-09T08:03:43;7.97;;;3.72;;
36691;SDS011;22678;52.052;4.242;2022-09-09T08:06:09;13.05;;;2.90;;
36691;SDS011;22678;52.052;4.242;2022-09-09T08:08:35;14.95;;;3.70;;
36691;SDS011;22678;52.052;4.242;2022-09-09T08:11:05;5.85;;;2.90;;
36691;SDS011;22678;52.052;4.242;2022-09-09T08:13:34;8.07;;;2.13;;
36691;SDS011;22678;52.052;4.242;2022-09-09T08:18:39;7.75;;;2.13;;
36691;SDS011;22678;52.052;4.242;2022-09-09T08:21:09;10.18;;;2.05;;
36691;SDS011;22678;52.052;4.242;2022-09-09T08:23:36;10.80;;;2.38;;
36691;SDS011;22678;52.052;4.242;2022-09-09T08:26:05;12.07;;;3.60;;
36691;SDS011;22678;52.052;4.242;2022-09-09T08:28:31;6.55;;;2.25;;
36691;SDS011;22678;52.052;4.242;2022-09-09T08:31:04;6.45;;;2.28;;
36691;SDS011;22678;52.052;4.242;2022-09-09T08:33:41;8.75;;;2.97;;
36691;SDS011;22678;52.052;4.242;2022-09-09T08:36:10;6.60;;;2.47;;
36691;SDS011;22678;52.052;4.242;2022-09-09T08:38:38;7.30;;;1.63;;
36691;SDS011;22678;52.052;4.242;2022-09-09T08:52:37;7.55;;;2.38;;
36691;SDS011;22678;52.052;4.242;2022-09-09T08:55:27;8.93;;;3.30;;
36691;SDS011;22678;52.052;4.242;2022-09-09T08:58:11;7.97;;;2.72;;
36691;SDS011;22678;52.052;4.242;2022-09-09T09:00:45;9.85;;;2.58;;
36691;SDS011;22678;52.052;4.242;2022-09-09T09:08:47;8.73;;;3.05;;
36691;SDS011;22678;52.052;4.242;2022-09-09T09:11:22;11.82;;;3.58;;
36691;SDS011;22678;52.052;4.242;2022-09-09T09:13:56;4.40;;;1.73;;
36691;SDS011;22678;52.052;4.242;2022-09-09T09:16:32;8.95;;;2.17;;
36691;SDS011;22678;52.052;4.242;2022-09-09T09:19:01;6.80;;;3.47;;
36691;SDS011;22678;52.052;4.242;2022-09-09T09:30:02;7.00;;;2.78;;
36691;SDS011;22678;52.052;4.242;2022-09-09T09:32:37;7.90;;;2.33;;
36691;SDS011;22678;52.052;4.242;2022-09-09T09:35:09;6.47;;;1.73;;
36691;SDS011;22678;52.052;4.242;2022-09-09T09:37:37;4.45;;;1.88;;
36691;SDS011;22678;52.052;4.242;2022-09-09T09:40:17;8.88;;;2.08;;
36691;SDS011;22678;52.052;4.242;2022-09-09T09:42:54;11.48;;;1.67;;
36691;SDS011;22678;52.052;4.242;2022-09-09T09:48:03;5.82;;;1.58;;
36691;SDS011;22678;52.052;4.242;2022-09-09T09:50:30;11.32;;;3.08;;
36691;SDS011;22678;52.052;4.242;2022-09-09T09:53:01;5.63;;;2.47;;
36691;SDS011;22678;52.052;4.242;2022-09-09T09:58:03;6.85;;;1.35;;
36691;SDS011;22678;52.052;4.242;2022-09-09T10:00:30;6.22;;;3.17;;
36691;SDS011;22678;52.052;4.242;2022-09-09T10:02:55;10.88;;;2.65;;
36691;SDS011;22678;52.052;4.242;2022-09-09T10:05:28;5.95;;;2.58;;
36691;SDS011;22678;52.052;4.242;2022-09-09T10:10:57;6.90;;;2.38;;
36691;SDS011;22678;52.052;4.242;2022-09-09T10:13:46;13.68;;;3.50;;
36691;SDS011;22678;52.052;4.242;2022-09-09T10:19:33;8.90;;;3.80;;
36691;SDS011;22678;52.052;4.242;2022-09-09T10:32:28;8.82;;;4.30;;
36691;SDS011;22678;52.052;4.242;2022-09-09T10:35:03;7.97;;;3.25;;
36691;SDS011;22678;52.052;4.242;2022-09-09T10:37:52;10.27;;;3.83;;
36691;SDS011;22678;52.052;4.242;2022-09-09T10:40:32;8.48;;;2.15;;
36691;SDS011;22678;52.052;4.242;2022-09-09T10:43:00;4.85;;;1.77;;
36691;SDS011;22678;52.052;4.242;2022-09-09T10:54:16;8.73;;;1.27;;
36691;SDS011;22678;52.052;4.242;2022-09-09T10:56:48;8.75;;;1.40;;
36691;SDS011;22678;52.052;4.242;2022-09-09T10:59:30;5.28;;;1.15;;
36691;SDS011;22678;52.052;4.242;2022-09-09T11:05:08;10.00;;;2.60;;
36691;SDS011;22678;52.052;4.242;2022-09-09T11:07:41;5.75;;;0.82;;
36691;SDS011;22678;52.052;4.242;2022-09-09T11:10:25;5.28;;;0.75;;
36691;SDS011;22678;52.052;4.242;2022-09-09T11:12:56;3.08;;;0.80;;
36691;SDS011;22678;52.052;4.242;2022-09-09T11:15:29;4.47;;;1.08;;
36691;SDS011;22678;52.052;4.242;2022-09-09T11:18:01;7.72;;;3.38;;
36691;SDS011;22678;52.052;4.242;2022-09-09T11:20:29;5.80;;;0.88;;
36691;SDS011;22678;52.052;4.242;2022-09-09T11:25:51;3.45;;;1.05;;
36691;SDS011;22678;52.052;4.242;2022-09-09T11:28:32;8.68;;;1.83;;
36691;SDS011;22678;52.052;4.242;2022-09-09T11:42:48;5.20;;;0.85;;
36691;SDS011;22678;52.052;4.242;2022-09-09T11:45:22;5.60;;;1.98;;
36691;SDS011;22678;52.052;4.242;2022-09-09T11:47:56;3.03;;;0.70;;
36691;SDS011;22678;52.052;4.242;2022-09-09T11:52:49;6.25;;;2.40;;
36691;SDS011;22678;52.052;4.242;2022-09-09T11:55:28;5.28;;;1.08;;
36691;SDS011;22678;52.052;4.242;2022-09-09T11:58:04;3.45;;;0.57;;
36691;SDS011;22678;52.052;4.242;2022-09-09T12:00:47;5.07;;;0.75;;
36691;SDS011;22678;52.052;4.242;2022-09-09T12:08:56;3.23;;;0.67;;
36691;SDS011;22678;52.052;4.242;2022-09-09T12:11:31;3.35;;;1.23;;
36691;SDS011;22678;52.052;4.242;2022-09-09T12:13:58;4.57;;;1.40;;
36691;SDS011;22678;52.052;4.242;2022-09-09T12:16:37;3.85;;;1.63;;
36691;SDS011;22678;52.052;4.242;2022-09-09T12:19:24;3.47;;;1.65;;
36691;SDS011;22678;52.052;4.242;2022-09-09T12:21:51;6.75;;;1.42;;
36691;SDS011;22678;52.052;4.242;2022-09-09T12:25:00;2.25;;;0.70;;
36691;SDS011;22678;52.052;4.242;2022-09-09T12:27:27;2.15;;;0.93;;
36691;SDS011;22678;52.052;4.242;2022-09-09T12:30:03;4.55;;;1.17;;
36691;SDS011;22678;52.052;4.242;2022-09-09T12:32:34;5.97;;;0.88;;
36691;SDS011;22678;52.052;4.242;2022-09-09T12:35:02;7.15;;;1.50;;
36691;SDS011;22678;52.052;4.242;2022-09-09T12:37:40;9.25;;;1.52;;
36691;SDS011;22678;52.052;4.242;2022-09-09T12:40:21;6.57;;;1.30;;
36691;SDS011;22678;52.052;4.242;2022-09-09T12:42:48;4.10;;;1.20;;
36691;SDS011;22678;52.052;4.242;2022-09-09T12:45:18;3.55;;;1.20;;
36691;SDS011;22678;52.052;4.242;2022-09-09T12:47:47;3.28;;;0.68;;
36691;SDS011;22678;52.052;4.242;2022-09-09T12:52:50;7.88;;;1.42;;
36691;SDS011;22678;52.052;4.242;2022-09-09T12:55:30;4.50;;;0.93;;
36691;SDS011;22678;52.052;4.242;2022-09-09T12:57:58;2.92;;;0.80;;
36691;SDS011;22678;52.052;4.242;2022-09-09T13:00:26;7.32;;;1.58;;
36691;SDS011;22678;52.052;4.242;2022-09-09T13:05:22;5.20;;;1.00;;
36691;SDS011;22678;52.052;4.242;2022-09-09T13:07:48;4.10;;;1.27;;
36691;SDS011;22678;52.052;4.242;2022-09-09T13:10:15;10.18;;;1.75;;
36691;SDS011;22678;52.052;4.242;2022-09-09T13:12:49;8.40;;;0.68;;
36691;SDS011;22678;52.052;4.242;2022-09-09T13:15:19;3.40;;;0.93;;
36691;SDS011;22678;52.052;4.242;2022-09-09T13:17:54;7.20;;;0.93;;
36691;SDS011;22678;52.052;4.242;2022-09-09T13:20:22;4.43;;;1.38;;
36691;SDS011;22678;52.052;4.242;2022-09-09T13:22:49;2.97;;;0.70;;
36691;SDS011;22678;52.052;4.242;2022-09-09T13:25:18;5.30;;;1.58;;
36691;SDS011;22678;52.052;4.242;2022-09-09T13:28:03;3.10;;;0.60;;
36691;SDS011;22678;52.052;4.242;2022-09-09T13:30:37;9.05;;;1.10;;
36691;SDS011;22678;52.052;4.242;2022-09-09T13:38:18;6.53;;;1.13;;
36691;SDS011;22678;52.052;4.242;2022-09-09T13:40:59;3.75;;;0.40;;
36691;SDS011;22678;52.052;4.242;2022-09-09T13:43:30;1.65;;;0.70;;
36691;SDS011;22678;52.052;4.242;2022-09-09T13:45:59;7.93;;;1.02;;
36691;SDS011;22678;52.052;4.242;2022-09-09T13:48:26;8.05;;;0.75;;
36691;SDS011;22678;52.052;4.242;2022-09-09T13:50:56;10.65;;;1.25;;
36691;SDS011;22678;52.052;4.242;2022-09-09T13:53:23;9.55;;;0.88;;
36691;SDS011;22678;52.052;4.242;2022-09-09T13:55:48;8.57;;;1.15;;
36691;SDS011;22678;52.052;4.242;2022-09-09T13:58:15;10.90;;;1.15;;
36691;SDS011;22678;52.052;4.242;2022-09-09T14:00:43;6.97;;;0.73;;
36691;SDS011;22678;52.052;4.242;2022-09-09T14:03:09;5.95;;;0.93;;
36691;SDS011;22678;52.052;4.242;2022-09-09T14:05:35;9.02;;;2.65;;
36691;SDS011;22678;52.052;4.242;2022-09-09T14:08:00;13.07;;;1.00;;
36691;SDS011;22678;52.052;4.242;2022-09-09T14:10:28;5.85;;;0.90;;
36691;SDS011;22678;52.052;4.242;2022-09-09T14:12:53;9.25;;;0.70;;
36691;SDS011;22678;52.052;4.242;2022-09-09T14:15:18;7.70;;;1.33;;
36691;SDS011;22678;52.052;4.242;2022-09-09T14:17:45;9.23;;;1.10;;
36691;SDS011;22678;52.052;4.242;2022-09-09T14:20:10;5.50;;;0.90;;
36691;SDS011;22678;52.052;4.242;2022-09-09T14:22:37;6.25;;;2.22;;
36691;SDS011;22678;52.052;4.242;2022-09-09T14:25:04;3.53;;;0.88;;
36691;SDS011;22678;52.052;4.242;2022-09-09T14:27:30;5.18;;;0.73;;
36691;SDS011;22678;52.052;4.242;2022-09-09T14:29:55;5.07;;;0.60;;
36691;SDS011;22678;52.052;4.242;2022-09-09T14:32:22;3.15;;;0.73;;
36691;SDS011;22678;52.052;4.242;2022-09-09T14:34:47;4.07;;;0.73;;
36691;SDS011;22678;52.052;4.242;2022-09-09T14:37:14;5.07;;;0.70;;
36691;SDS011;22678;52.052;4.242;2022-09-09T14:39:41;5.13;;;0.60;;
36691;SDS011;22678;52.052;4.242;2022-09-09T14:42:08;3.60;;;0.60;;
36691;SDS011;22678;52.052;4.242;2022-09-09T14:44:35;3.10;;;0.63;;
36691;SDS011;22678;52.052;4.242;2022-09-09T14:47:03;9.30;;;2.53;;
36691;SDS011;22678;52.052;4.242;2022-09-09T14:49:28;4.15;;;0.85;;
36691;SDS011;22678;52.052;4.242;2022-09-09T14:51:53;11.63;;;2.15;;
36691;SDS011;22678;52.052;4.242;2022-09-09T14:54:19;3.72;;;0.80;;
36691;SDS011;22678;52.052;4.242;2022-09-09T14:56:45;6.78;;;1.10;;
36691;SDS011;22678;52.052;4.242;2022-09-09T14:59:12;9.05;;;1.20;;
36691;SDS011;22678;52.052;4.242;2022-09-09T15:01:38;2.38;;;0.60;;
36691;SDS011;22678;52.052;4.242;2022-09-09T15:04:03;4.55;;;0.77;;
36691;SDS011;22678;52.052;4.242;2022-09-09T15:06:30;3.00;;;0.75;;
36691;SDS011;22678;52.052;4.242;2022-09-09T15:08:58;2.35;;;1.00;;
36691;SDS011;22678;52.052;4.242;2022-09-09T15:11:25;9.30;;;0.80;;
36691;SDS011;22678;52.052;4.242;2022-09-09T15:13:53;11.90;;;1.75;;
36691;SDS011;22678;52.052;4.242;2022-09-09T15:16:19;6.75;;;1.38;;
36691;SDS011;22678;52.052;4.242;2022-09-09T15:18:46;3.15;;;0.40;;
36691;SDS011;22678;52.052;4.242;2022-09-09T15:21:15;5.32;;;0.70;;
36691;SDS011;22678;52.052;4.242;2022-09-09T15:23:44;14.52;;;1.10;;
36691;SDS011;22678;52.052;4.242;2022-09-09T15:26:10;5.35;;;0.77;;
36691;SDS011;22678;52.052;4.242;2022-09-09T15:28:39;3.25;;;0.90;;
36691;SDS011;22678;52.052;4.242;2022-09-09T15:31:06;8.02;;;0.65;;
36691;SDS011;22678;52.052;4.242;2022-09-09T15:33:35;7.80;;;2.88;;
36691;SDS011;22678;52.052;4.242;2022-09-09T15:36:12;10.77;;;2.15;;
36691;SDS011;22678;52.052;4.242;2022-09-09T15:38:38;12.30;;;1.00;;
36691;SDS011;22678;52.052;4.242;2022-09-09T15:41:03;9.73;;;3.55;;
36691;SDS011;22678;52.052;4.242;2022-09-09T15:43:29;8.48;;;1.75;;
36691;SDS011;22678;52.052;4.242;2022-09-09T15:45:56;8.38;;;0.70;;
36691;SDS011;22678;52.052;4.242;2022-09-09T15:48:30;9.00;;;0.80;;
36691;SDS011;22678;52.052;4.242;2022-09-09T15:51:03;8.43;;;1.25;;
36691;SDS011;22678;52.052;4.242;2022-09-09T15:53:30;8.20;;;1.70;;
36691;SDS011;22678;52.052;4.242;2022-09-09T15:55:57;13.32;;;1.85;;
36691;SDS011;22678;52.052;4.242;2022-09-09T15:58:23;3.10;;;0.68;;
36691;SDS011;22678;52.052;4.242;2022-09-09T16:00:48;11.75;;;2.38;;
36691;SDS011;22678;52.052;4.242;2022-09-09T16:03:13;8.02;;;1.00;;
36691;SDS011;22678;52.052;4.242;2022-09-09T16:05:39;7.00;;;1.40;;
36691;SDS011;22678;52.052;4.242;2022-09-09T16:08:05;5.95;;;1.05;;
36691;SDS011;22678;52.052;4.242;2022-09-09T16:10:30;9.63;;;1.63;;
36691;SDS011;22678;52.052;4.242;2022-09-09T16:12:55;7.07;;;2.15;;
36691;SDS011;22678;52.052;4.242;2022-09-09T16:15:21;5.07;;;1.42;;
36691;SDS011;22678;52.052;4.242;2022-09-09T16:17:48;6.20;;;1.45;;
36691;SDS011;22678;52.052;4.242;2022-09-09T16:20:13;2.95;;;1.10;;
36691;SDS011;22678;52.052;4.242;2022-09-09T16:22:39;3.90;;;1.92;;
36691;SDS011;22678;52.052;4.242;2022-09-09T16:25:05;8.32;;;2.17;;
36691;SDS011;22678;52.052;4.242;2022-09-09T16:27:30;5.47;;;1.25;;
36691;SDS011;22678;52.052;4.242;2022-09-09T16:29:56;5.10;;;1.40;;
36691;SDS011;22678;52.052;4.242;2022-09-09T16:32:22;5.32;;;1.23;;
36691;SDS011;22678;52.052;4.242;2022-09-09T16:34:47;7.32;;;1.15;;
36691;SDS011;22678;52.052;4.242;2022-09-09T16:37:12;6.35;;;1.00;;
36691;SDS011;22678;52.052;4.242;2022-09-09T16:39:38;10.48;;;2.40;;
36691;SDS011;22678;52.052;4.242;2022-09-09T16:42:03;7.53;;;2.50;;
36691;SDS011;22678;52.052;4.242;2022-09-09T16:44:29;5.13;;;1.40;;
36691;SDS011;22678;52.052;4.242;2022-09-09T16:46:55;4.95;;;1.58;;
36691;SDS011;22678;52.052;4.242;2022-09-09T16:49:21;5.53;;;0.70;;
36691;SDS011;22678;52.052;4.242;2022-09-09T16:51:47;7.15;;;1.50;;
36691;SDS011;22678;52.052;4.242;2022-09-09T16:54:15;5.75;;;0.70;;
36691;SDS011;22678;52.052;4.242;2022-09-09T16:56:42;5.07;;;1.15;;
36691;SDS011;22678;52.052;4.242;2022-09-09T16:59:10;7.30;;;1.13;;
36691;SDS011;22678;52.052;4.242;2022-09-09T17:01:38;3.33;;;0.65;;
36691;SDS011;22678;52.052;4.242;2022-09-09T17:04:09;9.18;;;1.77;;
36691;SDS011;22678;52.052;4.242;2022-09-09T17:06:38;10.63;;;1.70;;
36691;SDS011;22678;52.052;4.242;2022-09-09T17:09:04;5.65;;;1.00;;
36691;SDS011;22678;52.052;4.242;2022-09-09T17:11:32;7.07;;;1.48;;
36691;SDS011;22678;52.052;4.242;2022-09-09T17:13:58;5.40;;;1.00;;